createdAt,value
2017-08-05T00:00:08.314Z,5.50
2017-08-05T00:02:36.656Z,4.77
2017-08-05T00:05:04.891Z,5.00
2017-08-05T00:07:33.175Z,5.03
2017-08-05T00:10:01.434Z,5.87
2017-08-05T00:12:29.674Z,6.57
2017-08-05T00:14:57.960Z,5.30
2017-08-05T00:17:26.966Z,5.40
2017-08-05T00:19:55.988Z,5.37
2017-08-05T00:22:24.555Z,5.30
2017-08-05T00:24:52.845Z,5.90
2017-08-05T00:27:21.111Z,6.43
2017-08-05T00:29:49.356Z,6.50
2017-08-05T00:32:18.411Z,6.57
2017-08-05T00:34:46.705Z,6.60
2017-08-05T00:37:14.956Z,4.97
2017-08-05T00:39:43.750Z,7.13
2017-08-05T00:42:12.040Z,5.97
2017-08-05T00:44:40.269Z,6.00
2017-08-05T00:47:09.281Z,6.63
2017-08-05T00:49:37.587Z,5.90
2017-08-05T00:52:05.818Z,6.27
2017-08-05T00:54:34.826Z,6.43
2017-08-05T00:57:03.081Z,6.00
2017-08-05T00:59:32.095Z,5.63
2017-08-05T01:02:01.085Z,5.30
2017-08-05T01:04:29.356Z,6.83
2017-08-05T01:06:57.632Z,6.60
2017-08-05T01:09:26.639Z,5.83
2017-08-05T01:11:55.503Z,5.43
2017-08-05T01:14:23.753Z,5.53
2017-08-05T01:16:52.017Z,6.73
2017-08-05T01:19:20.275Z,5.90
2017-08-05T01:21:48.575Z,6.50
2017-08-05T01:24:16.836Z,5.90
2017-08-05T01:26:45.097Z,8.30
2017-08-05T01:29:13.333Z,5.97
2017-08-05T01:31:41.591Z,5.70
2017-08-05T01:34:09.848Z,6.27
2017-08-05T01:36:38.117Z,7.00
2017-08-05T01:39:06.383Z,6.53
2017-08-05T01:41:34.651Z,6.20
2017-08-05T01:44:03.670Z,5.93
2017-08-05T01:46:31.947Z,6.67
2017-08-05T01:49:00.194Z,6.67
2017-08-05T01:51:28.449Z,6.03
2017-08-05T01:53:57.484Z,5.30
2017-08-05T01:56:25.716Z,5.77
2017-08-05T01:58:53.943Z,5.97
2017-08-05T02:01:22.194Z,6.80
2017-08-05T02:03:50.434Z,5.50
2017-08-05T02:06:18.720Z,6.70
2017-08-05T02:08:46.975Z,5.73
2017-08-05T02:11:15.215Z,5.10
2017-08-05T02:13:43.483Z,5.60
2017-08-05T02:16:11.734Z,5.67
2017-08-05T02:18:40.771Z,5.93
2017-08-05T02:21:08.998Z,4.97
2017-08-05T02:23:37.248Z,5.17
2017-08-05T02:26:05.505Z,4.80
2017-08-05T02:28:33.709Z,4.83
2017-08-05T02:31:01.966Z,5.13
2017-08-05T02:33:30.217Z,4.57
2017-08-05T02:35:58.467Z,5.23
2017-08-05T02:38:26.840Z,5.23
2017-08-05T02:40:55.078Z,5.40
2017-08-05T02:43:23.334Z,4.50
2017-08-05T02:45:51.556Z,4.43
2017-08-05T02:48:19.835Z,4.80
2017-08-05T02:50:48.891Z,4.77
2017-08-05T02:53:17.124Z,5.03
2017-08-05T02:55:45.374Z,5.17
2017-08-05T02:58:13.612Z,4.47
2017-08-05T03:00:41.858Z,5.80
2017-08-05T03:03:10.122Z,4.87
2017-08-05T03:05:39.173Z,4.70
2017-08-05T03:08:07.384Z,5.20
2017-08-05T03:10:35.635Z,4.50
2017-08-05T03:13:03.893Z,4.60
2017-08-05T03:15:32.149Z,4.73
2017-08-05T03:18:01.151Z,4.30
2017-08-05T03:20:29.467Z,5.27
2017-08-05T03:22:57.720Z,4.70
2017-08-05T03:25:25.968Z,5.73
2017-08-05T03:27:54.978Z,6.57
2017-08-05T03:30:23.243Z,6.23
2017-08-05T03:32:51.486Z,6.23
2017-08-05T03:35:19.723Z,5.90
2017-08-05T03:37:47.983Z,5.97
2017-08-05T03:40:16.254Z,5.27
2017-08-05T03:42:44.524Z,5.57
2017-08-05T03:45:13.542Z,4.60
2017-08-05T03:47:41.791Z,7.63
2017-08-05T03:50:10.809Z,6.87
2017-08-05T03:52:39.057Z,6.00
2017-08-05T03:55:08.096Z,5.40
2017-08-05T03:57:36.379Z,5.10
2017-08-05T04:00:05.341Z,5.80
2017-08-05T04:02:33.606Z,6.20
2017-08-05T04:05:01.836Z,6.87
2017-08-05T04:07:30.294Z,7.03
2017-08-05T04:09:58.529Z,4.97
2017-08-05T04:12:26.835Z,6.03
2017-08-05T04:14:55.812Z,6.00
2017-08-05T04:17:24.830Z,5.77
2017-08-05T04:19:53.047Z,7.47
2017-08-05T04:22:21.282Z,6.97
2017-08-05T04:24:49.542Z,5.23
2017-08-05T04:27:18.578Z,5.80
2017-08-05T04:29:46.823Z,5.40
2017-08-05T04:32:15.845Z,6.00
2017-08-05T04:34:44.085Z,8.43
2017-08-05T04:37:13.100Z,6.70
2017-08-05T04:39:41.354Z,5.90
2017-08-05T04:42:09.600Z,5.00
2017-08-05T04:44:37.847Z,5.63
2017-08-05T04:47:06.107Z,6.03
2017-08-05T04:49:34.362Z,5.80
2017-08-05T04:52:03.398Z,5.70
2017-08-05T04:54:31.669Z,7.20
2017-08-05T04:56:59.893Z,6.77
2017-08-05T04:59:28.154Z,6.90
2017-08-05T05:01:56.402Z,7.50
2017-08-05T05:04:24.662Z,6.80
2017-08-05T05:06:52.920Z,6.43
2017-08-05T05:09:21.893Z,5.10
2017-08-05T05:11:50.927Z,5.40
2017-08-05T05:14:19.178Z,5.60
2017-08-05T05:16:47.497Z,6.60
2017-08-05T05:19:15.755Z,5.80
2017-08-05T05:21:43.977Z,5.50
2017-08-05T05:24:12.327Z,6.10
2017-08-05T05:26:40.616Z,6.33
2017-08-05T05:29:08.918Z,6.63
2017-08-05T05:31:37.129Z,6.17
2017-08-05T05:34:06.139Z,5.80
2017-08-05T05:36:34.416Z,6.40
2017-08-05T05:39:02.645Z,6.07
2017-08-05T05:41:30.899Z,6.00
2017-08-05T05:43:59.121Z,7.93
2017-08-05T05:46:28.193Z,8.50
2017-08-05T05:48:56.431Z,7.77
2017-08-05T05:51:24.706Z,6.60
2017-08-05T05:53:52.974Z,6.33
2017-08-05T05:56:21.243Z,6.60
2017-08-05T05:58:50.251Z,6.60
2017-08-05T06:01:18.508Z,7.43
2017-08-05T06:03:47.552Z,6.73
2017-08-05T06:06:15.787Z,6.43
2017-08-05T06:08:44.044Z,6.40
2017-08-05T06:11:12.277Z,5.63
2017-08-05T06:13:40.580Z,5.57
2017-08-05T06:16:08.786Z,6.87
2017-08-05T06:18:37.042Z,5.33
2017-08-05T06:21:05.281Z,6.33
2017-08-05T06:23:33.567Z,5.00
2017-08-05T06:26:01.810Z,5.80
2017-08-05T06:28:30.063Z,6.37
2017-08-05T06:30:59.094Z,5.60
2017-08-05T06:33:27.342Z,6.07
2017-08-05T06:35:56.365Z,6.43
2017-08-05T06:38:24.624Z,8.83
2017-08-05T06:40:52.859Z,6.20
2017-08-05T06:43:21.098Z,7.60
2017-08-05T06:45:49.341Z,7.27
2017-08-05T06:48:18.381Z,9.00
2017-08-05T06:50:46.602Z,9.73
2017-08-05T06:53:15.611Z,8.17
2017-08-05T06:55:43.893Z,9.67
2017-08-05T06:58:12.882Z,7.93
2017-08-05T07:00:41.922Z,7.67
2017-08-05T07:03:10.172Z,7.47
2017-08-05T07:05:38.470Z,6.27
2017-08-05T07:08:06.695Z,8.97
2017-08-05T07:10:35.702Z,7.67
2017-08-05T07:13:03.971Z,8.60
2017-08-05T07:15:32.995Z,7.23
2017-08-05T07:18:01.257Z,6.47
2017-08-05T07:20:30.266Z,6.73
2017-08-05T07:22:58.518Z,7.07
2017-08-05T07:25:26.789Z,6.70
2017-08-05T07:27:55.838Z,5.77
2017-08-05T07:30:24.086Z,5.80
2017-08-05T07:32:52.337Z,5.43
2017-08-05T07:35:20.581Z,5.30
2017-08-05T07:37:48.814Z,4.93
2017-08-05T07:40:17.094Z,4.90
2017-08-05T07:42:45.334Z,5.10
2017-08-05T07:45:14.361Z,5.50
2017-08-05T07:47:42.602Z,4.67
2017-08-05T07:50:10.893Z,5.00
2017-08-05T07:52:39.231Z,4.67
2017-08-05T07:55:07.506Z,5.10
2017-08-05T07:57:35.721Z,5.30
2017-08-05T08:00:03.980Z,5.53
2017-08-05T08:02:32.271Z,7.20
2017-08-05T08:05:00.606Z,5.20
2017-08-05T08:07:28.842Z,6.60
2017-08-05T08:09:57.865Z,6.00
2017-08-05T08:12:26.155Z,4.93
2017-08-05T08:14:54.383Z,6.07
2017-08-05T08:17:23.397Z,7.47
2017-08-05T08:19:51.676Z,6.07
2017-08-05T08:22:19.924Z,6.37
2017-08-05T08:24:49.062Z,6.90
2017-08-05T08:27:17.291Z,5.17
2017-08-05T08:29:46.341Z,5.67
2017-08-05T08:32:14.562Z,5.50
2017-08-05T08:34:43.624Z,4.77
2017-08-05T08:37:11.878Z,3.73
2017-08-05T08:39:40.109Z,5.07
2017-08-05T08:42:09.157Z,5.03
2017-08-05T08:44:37.389Z,5.57
2017-08-05T08:47:06.392Z,5.37
2017-08-05T08:49:34.668Z,4.60
2017-08-05T08:52:03.693Z,4.80
2017-08-05T08:54:32.077Z,9.97
2017-08-05T08:57:01.052Z,5.10
2017-08-05T08:59:29.313Z,5.33
2017-08-05T09:01:58.343Z,4.47
2017-08-05T09:04:26.566Z,4.10
2017-08-05T09:06:54.850Z,3.70
2017-08-05T09:09:23.525Z,5.23
2017-08-05T09:11:51.769Z,4.53
2017-08-05T09:14:20.022Z,4.40
2017-08-05T09:16:48.297Z,3.87
2017-08-05T09:19:16.554Z,4.00
2017-08-05T09:21:45.555Z,3.90
2017-08-05T09:24:14.578Z,4.43
2017-08-05T09:26:42.814Z,4.50
2017-08-05T09:29:11.834Z,2.97
2017-08-05T09:31:40.127Z,4.00
2017-08-05T09:34:08.383Z,3.97
2017-08-05T09:36:36.629Z,3.50
2017-08-05T09:39:04.865Z,4.00
2017-08-05T09:41:33.124Z,4.57
2017-08-05T09:44:01.378Z,3.90
2017-08-05T09:46:30.426Z,2.73
2017-08-05T09:48:58.716Z,3.17
2017-08-05T09:51:26.944Z,2.80
2017-08-05T09:53:55.211Z,2.30
2017-08-05T09:56:23.495Z,2.10
2017-08-05T09:58:51.740Z,1.93
2017-08-05T10:01:19.979Z,2.57
2017-08-05T10:03:48.255Z,1.60
2017-08-05T10:06:16.528Z,2.20
2017-08-05T10:08:44.755Z,2.30
2017-08-05T10:11:13.795Z,2.07
2017-08-05T10:13:42.171Z,1.70
2017-08-05T10:16:10.391Z,2.60
2017-08-05T10:18:38.702Z,5.47
2017-08-05T10:21:06.976Z,1.90
2017-08-05T10:23:36.103Z,3.30
2017-08-05T10:26:04.357Z,2.60
2017-08-05T10:28:33.396Z,2.37
2017-08-05T10:31:01.632Z,2.40
2017-08-05T10:33:29.899Z,4.30
2017-08-05T10:35:58.204Z,2.50
2017-08-05T10:38:26.460Z,2.80
2017-08-05T10:40:55.475Z,3.17
2017-08-05T10:43:23.740Z,3.37
2017-08-05T10:45:52.231Z,3.10
2017-08-05T10:48:20.621Z,2.90
2017-08-05T10:50:48.880Z,3.37
2017-08-05T10:53:17.138Z,3.07
2017-08-05T10:55:46.166Z,3.73
2017-08-05T10:58:14.428Z,4.07
2017-08-05T11:00:42.699Z,4.93
2017-08-05T11:03:10.983Z,4.80
2017-08-05T11:05:39.224Z,3.50
2017-08-05T11:08:08.238Z,4.50
2017-08-05T11:10:38.221Z,4.80
2017-08-05T11:13:06.510Z,5.43
2017-08-05T11:15:34.777Z,4.27
2017-08-05T11:18:03.029Z,4.40
2017-08-05T11:20:31.294Z,3.50
2017-08-05T11:22:59.539Z,3.70
2017-08-05T11:25:27.826Z,4.90
2017-08-05T11:27:56.081Z,3.67
2017-08-05T11:30:25.126Z,3.50
2017-08-05T11:32:53.426Z,2.10
2017-08-05T11:35:21.670Z,3.20
2017-08-05T11:37:49.921Z,2.33
2017-08-05T11:40:18.942Z,2.27
2017-08-05T11:42:47.196Z,2.13
2017-08-05T11:45:15.462Z,2.03
2017-08-05T11:47:44.458Z,1.70
2017-08-05T11:50:13.485Z,2.13
2017-08-05T11:52:41.735Z,2.47
2017-08-05T11:55:09.983Z,2.93
2017-08-05T11:57:38.242Z,2.90
2017-08-05T12:00:06.500Z,2.50
2017-08-05T12:02:34.824Z,2.50
2017-08-05T12:05:03.090Z,2.60
2017-08-05T12:07:31.342Z,2.63
2017-08-05T12:09:59.657Z,2.47
2017-08-05T12:12:27.891Z,2.97
2017-08-05T12:14:56.231Z,1.47
2017-08-05T12:17:24.470Z,2.50
2017-08-05T12:19:52.704Z,2.00
2017-08-05T12:22:20.964Z,1.80
2017-08-05T12:24:49.250Z,1.70
2017-08-05T12:27:18.275Z,1.80
2017-08-05T12:29:46.526Z,1.60
2017-08-05T12:32:14.758Z,1.50
2017-08-05T12:34:43.015Z,1.87
2017-08-05T12:37:11.265Z,1.60
2017-08-05T12:39:39.514Z,1.63
2017-08-05T12:42:07.739Z,3.40
2017-08-05T12:44:36.042Z,2.30
2017-08-05T12:47:04.315Z,1.57
2017-08-05T12:49:32.556Z,2.30
2017-08-05T12:52:00.837Z,1.73
2017-08-05T12:54:29.065Z,2.60
2017-08-05T12:56:57.306Z,2.50
2017-08-05T12:59:25.552Z,1.83
2017-08-05T13:01:53.828Z,2.00
2017-08-05T13:04:22.086Z,1.57
2017-08-05T13:06:50.346Z,2.33
2017-08-05T13:09:18.605Z,1.60
2017-08-05T13:11:46.899Z,1.70
2017-08-05T13:14:15.154Z,2.07
2017-08-05T13:16:43.399Z,2.13
2017-08-05T13:19:11.775Z,2.00
2017-08-05T13:21:40.751Z,1.50
2017-08-05T13:24:09.018Z,4.80
2017-08-05T13:26:37.310Z,2.27
2017-08-05T13:29:06.318Z,1.77
2017-08-05T13:31:34.564Z,1.90
2017-08-05T13:34:03.646Z,1.63
2017-08-05T13:36:31.901Z,1.70
2017-08-05T13:39:00.165Z,1.40
2017-08-05T13:41:28.425Z,2.00
2017-08-05T13:43:56.685Z,2.03
2017-08-05T13:46:24.942Z,1.63
2017-08-05T13:48:53.957Z,1.70
2017-08-05T13:51:22.335Z,1.80
2017-08-05T13:53:50.558Z,2.13
2017-08-05T13:56:18.805Z,2.00
2017-08-05T13:58:47.075Z,2.17
2017-08-05T14:01:15.344Z,2.13
2017-08-05T14:03:43.619Z,1.67
2017-08-05T14:06:12.642Z,10.53
2017-08-05T14:08:41.229Z,4.17
2017-08-05T14:11:10.112Z,5.33
2017-08-05T14:13:38.355Z,4.93
2017-08-05T14:16:06.647Z,5.47
2017-08-05T14:18:34.892Z,5.70
2017-08-05T14:21:03.949Z,6.90
2017-08-05T14:23:32.210Z,6.90
2017-08-05T14:26:00.476Z,6.40
2017-08-05T14:28:28.751Z,6.93
2017-08-05T14:30:56.983Z,7.47
2017-08-05T14:33:25.241Z,7.03
2017-08-05T14:35:54.435Z,7.03
2017-08-05T14:38:22.698Z,6.60
2017-08-05T14:40:50.918Z,7.07
2017-08-05T14:43:19.967Z,7.43
2017-08-05T14:45:48.243Z,7.80
2017-08-05T14:48:16.495Z,7.80
2017-08-05T14:50:44.765Z,11.37
2017-08-05T14:53:13.055Z,9.87
2017-08-05T14:55:42.164Z,9.73
2017-08-05T14:58:10.458Z,9.47
2017-08-05T15:00:38.671Z,11.27
2017-08-05T15:03:07.766Z,9.60
2017-08-05T15:05:36.767Z,8.67
2017-08-05T15:08:05.126Z,11.03
2017-08-05T15:10:33.394Z,9.90
2017-08-05T15:13:02.441Z,10.80
2017-08-05T15:15:31.454Z,10.23
2017-08-05T15:17:59.730Z,9.93
2017-08-05T15:20:28.410Z,9.90
2017-08-05T15:22:56.669Z,8.70
2017-08-05T15:25:24.967Z,11.07
2017-08-05T15:27:53.232Z,10.13
2017-08-05T15:30:21.492Z,10.63
2017-08-05T15:32:50.544Z,10.10
2017-08-05T15:35:18.807Z,9.93
2017-08-05T15:37:47.085Z,9.93
2017-08-05T15:40:15.320Z,10.20
2017-08-05T15:42:43.577Z,9.40
2017-08-05T15:45:12.630Z,8.63
2017-08-05T15:47:40.879Z,7.70
2017-08-05T15:50:09.144Z,7.83
2017-08-05T15:52:38.182Z,6.90
2017-08-05T15:55:06.458Z,7.90
2017-08-05T15:57:34.685Z,5.77
2017-08-05T16:00:03.755Z,7.20
2017-08-05T16:02:32.345Z,6.57
2017-08-05T16:05:00.617Z,6.10
2017-08-05T16:07:28.847Z,6.67
2017-08-05T16:09:57.106Z,6.30
2017-08-05T16:12:25.423Z,5.87
2017-08-05T16:14:53.661Z,6.00
2017-08-05T16:17:21.928Z,6.60
2017-08-05T16:19:50.965Z,5.93
2017-08-05T16:22:19.197Z,6.47
2017-08-05T16:24:47.464Z,6.67
2017-08-05T16:27:15.730Z,6.30
2017-08-05T16:29:43.989Z,6.23
2017-08-05T16:32:12.251Z,5.90
2017-08-05T16:34:40.630Z,6.37
2017-08-05T16:37:08.939Z,6.30
2017-08-05T16:39:37.184Z,6.83
2017-08-05T16:42:05.784Z,6.67
2017-08-05T16:44:34.052Z,8.10
2017-08-05T16:47:02.311Z,7.33
2017-08-05T16:49:30.563Z,7.33
2017-08-05T16:51:59.573Z,5.70
2017-08-05T16:54:27.820Z,6.60
2017-08-05T16:56:56.849Z,7.00
2017-08-05T16:59:25.102Z,7.60
2017-08-05T17:01:54.113Z,8.60
2017-08-05T17:04:22.380Z,7.90
2017-08-05T17:06:51.414Z,7.53
2017-08-05T17:09:19.666Z,8.37
2017-08-05T17:11:47.945Z,7.77
2017-08-05T17:14:16.965Z,7.63
2017-08-05T17:16:45.195Z,8.93
2017-08-05T17:19:13.475Z,8.17
2017-08-05T17:21:41.761Z,8.20
2017-08-05T17:24:10.014Z,6.67
2017-08-05T17:26:39.035Z,6.47
2017-08-05T17:29:07.304Z,6.70
2017-08-05T17:31:35.552Z,5.90
2017-08-05T17:34:04.704Z,5.93
2017-08-05T17:36:32.935Z,5.90
2017-08-05T17:39:01.958Z,6.80
2017-08-05T17:41:30.244Z,6.13
2017-08-05T17:43:58.540Z,6.53
2017-08-05T17:46:26.812Z,6.37
2017-08-05T17:48:55.096Z,9.50
2017-08-05T17:51:23.367Z,6.60
2017-08-05T17:53:51.605Z,5.90
2017-08-05T17:56:20.640Z,7.93
2017-08-05T17:58:48.925Z,6.90
2017-08-05T18:01:17.216Z,5.47
2017-08-05T18:03:46.271Z,6.13
2017-08-05T18:06:15.255Z,6.40
2017-08-05T18:08:43.519Z,7.70
2017-08-05T18:11:12.547Z,7.13
2017-08-05T18:13:40.803Z,6.30
2017-08-05T18:16:09.066Z,7.07
2017-08-05T18:18:38.094Z,7.20
2017-08-05T18:21:06.365Z,7.90
2017-08-05T18:23:35.373Z,7.87
2017-08-05T18:26:03.664Z,7.40
2017-08-05T18:28:32.019Z,8.93
2017-08-05T18:31:00.278Z,7.57
2017-08-05T18:33:29.357Z,6.47
2017-08-05T18:35:57.620Z,7.80
2017-08-05T18:38:25.881Z,6.83
2017-08-05T18:40:54.192Z,6.10
2017-08-05T18:43:22.458Z,6.87
2017-08-05T18:45:50.698Z,7.30
2017-08-05T18:48:18.979Z,7.27
2017-08-05T18:50:47.252Z,7.47
2017-08-05T18:53:15.552Z,6.90
2017-08-05T18:55:43.817Z,7.27
2017-08-05T18:58:12.187Z,5.93
2017-08-05T19:00:40.407Z,7.97
2017-08-05T19:03:09.444Z,7.23
2017-08-05T19:05:37.764Z,9.10
2017-08-05T19:08:06.005Z,8.70
2017-08-05T19:10:34.316Z,7.33
2017-08-05T19:13:02.583Z,8.27
2017-08-05T19:15:30.864Z,9.43
2017-08-05T19:17:59.128Z,10.13
2017-08-05T19:20:27.410Z,10.20
2017-08-05T19:22:55.714Z,10.97
2017-08-05T19:25:23.986Z,11.67
2017-08-05T19:27:52.239Z,11.37
2017-08-05T19:30:20.521Z,12.70
2017-08-05T19:32:48.797Z,11.87
2017-08-05T19:35:17.088Z,11.33
2017-08-05T19:37:45.433Z,11.23
2017-08-05T19:40:13.728Z,12.63
2017-08-05T19:42:43.021Z,11.17
2017-08-05T19:45:11.329Z,11.57
2017-08-05T19:47:39.583Z,13.60
2017-08-05T19:50:07.882Z,13.27
2017-08-05T19:52:36.173Z,12.07
2017-08-05T19:55:04.454Z,12.27
2017-08-05T19:57:32.790Z,13.00
2017-08-05T20:00:01.073Z,12.20
2017-08-05T20:02:29.706Z,12.80
2017-08-05T20:04:58.896Z,13.40
2017-08-05T20:07:27.255Z,12.80
2017-08-05T20:09:55.517Z,13.40
2017-08-05T20:12:23.795Z,11.43
2017-08-05T20:14:52.088Z,13.47
2017-08-05T20:17:20.321Z,11.10
2017-08-05T20:19:48.625Z,13.40
2017-08-05T20:22:16.907Z,12.93
2017-08-05T20:24:45.168Z,13.90
2017-08-05T20:27:13.813Z,12.63
2017-08-05T20:29:42.066Z,12.07
2017-08-05T20:32:10.366Z,11.60
2017-08-05T20:34:39.413Z,13.50
2017-08-05T20:37:07.744Z,11.23
2017-08-05T20:39:36.801Z,14.33
2017-08-05T20:42:05.068Z,12.07
2017-08-05T20:44:33.354Z,10.87
2017-08-05T20:47:01.637Z,11.23
2017-08-05T20:49:29.958Z,13.30
2017-08-05T20:51:58.208Z,12.73
2017-08-05T20:54:26.563Z,11.20
2017-08-05T20:56:54.916Z,13.20
2017-08-05T20:59:23.162Z,14.00
2017-08-05T21:01:52.239Z,13.63
2017-08-05T21:04:20.483Z,12.03
2017-08-05T21:06:48.795Z,12.13
2017-08-05T21:09:17.088Z,12.47
2017-08-05T21:11:45.358Z,12.97
2017-08-05T21:14:14.390Z,13.20
2017-08-05T21:16:42.682Z,13.50
2017-08-05T21:19:10.958Z,13.10
2017-08-05T21:21:39.276Z,13.90
2017-08-05T21:24:07.535Z,13.63
2017-08-05T21:26:35.875Z,13.43
2017-08-05T21:29:04.181Z,12.50
2017-08-05T21:31:32.429Z,12.40
2017-08-05T21:34:00.670Z,13.30
2017-08-05T21:36:29.733Z,11.57
2017-08-05T21:38:58.034Z,13.40
2017-08-05T21:41:26.271Z,15.77
2017-08-05T21:43:54.642Z,14.33
2017-08-05T21:46:22.884Z,13.57
2017-08-05T21:48:51.930Z,14.07
2017-08-05T21:51:20.207Z,13.30
2017-08-05T21:53:48.486Z,14.47
2017-08-05T21:56:16.781Z,15.00
2017-08-05T21:58:45.025Z,15.33
2017-08-05T22:01:13.360Z,14.87
2017-08-05T22:03:41.646Z,14.63
2017-08-05T22:06:10.897Z,13.57
2017-08-05T22:08:39.204Z,13.60
2017-08-05T22:11:07.455Z,12.30
2017-08-05T22:13:35.726Z,13.80
2017-08-05T22:16:03.994Z,14.00
2017-08-05T22:18:32.313Z,15.60
2017-08-05T22:21:00.594Z,14.60
2017-08-05T22:23:28.930Z,15.40
2017-08-05T22:25:57.244Z,15.67
2017-08-05T22:28:25.817Z,14.80
2017-08-05T22:30:54.078Z,14.63
2017-08-05T22:33:22.384Z,15.80
2017-08-05T22:35:50.691Z,15.47
2017-08-05T22:38:18.956Z,14.13
2017-08-05T22:40:47.193Z,13.93
2017-08-05T22:43:15.676Z,15.07
2017-08-05T22:45:43.958Z,13.50
2017-08-05T22:48:12.244Z,14.10
2017-08-05T22:50:40.534Z,14.80
2017-08-05T22:53:08.800Z,13.40
2017-08-05T22:55:37.093Z,13.60
2017-08-05T22:58:05.378Z,14.13
2017-08-05T23:00:34.400Z,14.60
2017-08-05T23:03:02.822Z,14.83
2017-08-05T23:05:31.096Z,15.87
2017-08-05T23:07:59.409Z,14.63
2017-08-05T23:10:28.440Z,26.13
2017-08-05T23:12:56.699Z,16.67
2017-08-05T23:15:24.982Z,16.63
2017-08-05T23:17:53.254Z,17.27
2017-08-05T23:20:21.503Z,15.83
2017-08-05T23:22:50.557Z,17.63
2017-08-05T23:25:18.787Z,15.53
2017-08-05T23:27:47.827Z,15.63
2017-08-05T23:30:16.080Z,18.00
2017-08-05T23:32:44.371Z,17.27
2017-08-05T23:35:12.656Z,16.40
2017-08-05T23:37:40.928Z,15.93
2017-08-05T23:40:09.446Z,19.63
2017-08-05T23:42:37.725Z,18.53
2017-08-05T23:45:05.969Z,19.07
2017-08-05T23:47:34.267Z,19.47
2017-08-05T23:50:03.297Z,19.03
2017-08-05T23:52:32.342Z,17.63
2017-08-05T23:55:00.621Z,16.90
2017-08-05T23:57:28.891Z,17.70
2017-08-05T23:59:57.134Z,17.80
